Weerspreuk van de dag: Als vroeg krokussen bloeien, dan zullen ze met de koude stoeien.
Onweer van: 19-06-2021 22:00 tot: 20-06-2021 03:00 waarschuwing voor: Onweer niveau: Geel info button
Onweersbuien, lokaal met windstoten van 65-75 km/uur, hagel en lokaal veel neerslag (20-30 mm in een uur).Kans op blikseminslag, windstoten en veel neerslag in korte tijd.Verkeer en buitenactiviteiten kunnen hinder ondervinden.Mijd open water en open gebied, schuil niet onder bomen.Volg weerberichten en waarschuwingen.


waarschuwing voor Onweer Meer informatie blitzortung!


Regen radar Meer informatie rain snow radar


Bekijk deze sites ook eens:

FPL Automotive (TIP)

Autostekkers.nl (TIP)

Over Luyksgestel

De Kempen, mijn omgeving

BOL.com

Weerstation Noordbergum

Inktweb

Weerstation Hapert

Weerstation Hoogeloon

Weerstation Son&Breugel

Weerstation Castaert

Nieuw horloge

Weerstation Tilburg Reeshof

Weerstation Scheulder

Weerverwachting Samos

Samos actueel

Weerwoord (forum)

Griekenlandforum

Vakantie naar Samos

Winterzon

Canon

Wolven in Nederland



METAR rapporten vliegvelden

   
EBAW - Antwerp
Gewijzigd: 19-06-2021 17:20
Licht bewolkt  
Licht bewolkt  
   Wind: Noorden 11.1 km/h
Wind: Noorden 11.1 km/h
Temperatuur: 20°C
Dauwpunt: 15°C
Vochtigheid: 73%
Barometer: 1013 hPa
Bewolking: Licht bewolkt
Zicht: meer dan 10 km
Bewolking: Licht bewolkt 2600 ft
EBAW 191520Z 01006KT 330V040 9999 FEW026 20/15 Q1013 NOSIG
EBLG - Liège
Gewijzigd: 19-06-2021 17:20
Helder  
Helder  
   Wind: Noorden 13 km/h
Wind: Noorden 13 km/h
Temperatuur: 25°C
Dauwpunt: 17°C
Vochtigheid: 61%
Barometer: 1012 hPa
Zicht: meer dan 10 km
Bewolking: Helder
EBLG 191520Z 01007KT 340V050 CAVOK 25/17 Q1012 NOSIG
EBCV - Mons/Bergen
Gewijzigd: 19-06-2021 17:25
Grotendeels bewolkt  
Grotendeels bewolkt  
   Wind: NNO 13 km/h
Wind: NNO 13 km/h
Temperatuur: 20°C
Dauwpunt: 17°C
Vochtigheid: 83%
Barometer: 1012 hPa
Bewolking: Grotendeels bewolkt
Zicht: meer dan 10 km
Bewolking: Grotendeels bewolkt 6600 ft
EBCV 191525Z AUTO 03007KT 9999 BKN066/// 20/17 Q1012 BLU
EHBK - Maastricht
Gewijzigd: 19-06-2021 17:25
Gedeeltelijk bewolkt  
Gedeeltelijk bewolkt  
   Wind: Noorden 11.1 km/h
Wind: Noorden 11.1 km/h
Temperatuur: 27°C
Gevoelstemperatuur: 28°C
Dauwpunt: 17°C
Vochtigheid: 54%
Barometer: 1012 hPa
Bewolking: Gedeeltelijk bewolkt
Zicht: meer dan 10 km
Bewolking: Gedeeltelijk bewolkt
EHBK 191525Z AUTO 35006KT 300V040 9999 NSC 27/17 Q1012 NOSIG
ELLX - Luxemburg
Gewijzigd: 19-06-2021 17:20
Licht bewolkt  
Licht bewolkt  
   Wind: Oosten 7.4 km/h
Wind: Oosten 7.4 km/h
Temperatuur: 28°C
Gevoelstemperatuur: 28°C
Dauwpunt: 17°C
Vochtigheid: 51%
Barometer: 1012 hPa
Bewolking: Licht bewolkt
Zicht: meer dan 10 km
Bewolking: Licht bewolkt 4800 ft
ELLX 191520Z 10004KT 040V160 9999 FEW048TCU 28/17 Q1012 NOSIG
EBOS - Oostende
Gewijzigd: 19-06-2021 17:20
Grotendeels bewolkt  
Grotendeels bewolkt  
   Wind: ONO 16.7 km/h
Wind: ONO 16.7 km/h
Temperatuur: 16°C
Dauwpunt: 13°C
Vochtigheid: 83%
Barometer: 1013 hPa
Bewolking: Grotendeels bewolkt
Zicht: meer dan 10 km
Bewolking: Licht bewolkt 800 ft,
Grotendeels bewolkt 900 ft
EBOS 191520Z 06009KT 9999 FEW008 BKN009 16/13 Q1013 BECMG BKN010

Script ontwikkeld door  Saratoga-weather.org Aangepast voor de template door  Weerstation Leuven

U vindt ons ook hier:

Het Weer Aktueel

UK Metoffice

European Weather Network

Weather Underground

AWEKAS